Strona główna
METAR-TAF:

METAR-TAF

Lotnisko :

Kolda, Senegal

Szerokość geograficzna: 12-53N, Długość geograficzna: 014-58W, wysokość: 10 m

Aktualna obserwacja pogody

Raport powstał 1 godzina i 40 minut temu, godzina 18:00 UTC
Wiatr 8 kt od południe
Temperatura 35°C
Wilgotność 47%
Ciśnienie 1008 hPa
Widzialność 10 km lub więcej
Brak chmur poniżej 1500 m i brak chmur cumulonimbus

METAR: GOGK 301800Z 18008KT CAVOK 35/22 Q1008

czas: 19:40 (19:40 UTC)


TAF: brakujący

Obserwacja i prognoza pogody dla ponad 4000 lotnisk (raport METAR i TAF).

Dostępne stacje oznaczono żółtymi i czerwonymi punktami na mapie.

Najedź kursorem aby zobaczyć nazwę stacji.

Kliknij aby zobaczyć obserwacje i prognozy pogody.

Aby zmienić mapę: kliknij na zielony przycisk z czarnym krzyżykiem, aby powiększyć; na zielony przycisk z myślnikiem, aby pomniejszyć; na zielone strzałki, aby przejść do map sąsiednich.


METAR-TAF: